Pomona, California
Current Conditions -  °F | °C
As of 2:53 PM on Monday 24 Nov 2014 (Local Time) from KONT Reporting Station
Clear Clear  
Wind Chill: 76°   Ceiling: Unl
Heat Index: 76°   Visibility: 10mi
Dew Point: 11°   Wind: 25mph
Humidity: 8%   Direction: 50°NE
Pressure: 30.19"   Gusts: 35mph
Location:  34.05°N, 117.75°W
Report Text: KONT 242253Z 05022G30KT 10SM CLR 24/M12 A3019 RMK AO2 PK WND 04032/2218 SLP217 T02441117
Loading
Personal Weather Stations






























Interactive Weather Map New forecast layout! Learn more

10-Day Weather Forecast

Advertisements
Track Severe Weather on mobile